This is the latest recevied weather packets stored in our database for station/object KR8N. If no packets are shown the sender has not sent any weather packets the latest 10 day(s).
| Time | Temp. | Humidity | Pressure | Rain* | Wind** | Luminosity | Snow |
|---|---|---|---|---|---|---|---|
| 1777411791 | 22.22° C | 60% | 1019.1 hPa | 0 mm | - | 172 W/m² | - |
| 1777411490 | 22.22° C | 61% | 1019.2 hPa | 0 mm | - | 453 W/m² | - |
| 1777411190 | 21.67° C | 62% | 1019.2 hPa | 0 mm | - | 384 W/m² | - |
| 1777410885 | 21.11° C | 63% | 1019.1 hPa | 0 mm | - | 494 W/m² | - |
| 1777410585 | 20.56° C | 65% | 1019.3 hPa | 0 mm | - | 191 W/m² | - |
| 1777410285 | 20.56° C | 64% | 1019.5 hPa | 0 mm | - | 390 W/m² | - |
| 1777409980 | 20.56° C | 63% | 1019.2 hPa | 0 mm | - | 153 W/m² | - |
| 1777409674 | 21.11° C | 62% | 1018.9 hPa | 0 mm | - | 86 W/m² | - |
| 1777409371 | 21.67° C | 60% | 1018.9 hPa | 0 mm | - | 143 W/m² | - |
| 1777409067 | 22.78° C | 58% | 1018.9 hPa | 0 mm | - | 176 W/m² | - |
| 1777408764 | 21.67° C | 60% | 1018.9 hPa | 0 mm | - | 613 W/m² | - |
| 1777408460 | 21.67° C | 60% | 1018.9 hPa | 0 mm | - | 146 W/m² | - |
| 1777408155 | 21.67° C | 61% | 1018.9 hPa | 0 mm | - | 675 W/m² | - |
| 1777407850 | 21.11° C | 62% | 1019 hPa | 0 mm | - | 700 W/m² | - |
| 1777407548 | 21.67° C | 60% | 1019.1 hPa | 0 mm | - | 141 W/m² | - |
| 1777407247 | 21.67° C | 60% | 1019.2 hPa | 0 mm | - | 808 W/m² | - |
| 1777406942 | 22.22° C | 59% | 1019.1 hPa | 0 mm | - | 648 W/m² | - |
| 1777406641 | 21.67° C | 63% | 1019.3 hPa | 0 mm | - | 699 W/m² | - |
| 1777406338 | 21.11° C | 62% | 1019.3 hPa | 0 mm | - | 852 W/m² | - |
| 1777406037 | 21.11° C | 61% | 1019.5 hPa | 0 mm | - | 769 W/m² | - |
| 1777405734 | 21.67° C | 61% | 1019.5 hPa | 0 mm | - | 478 W/m² | - |
| 1777405430 | 21.67° C | 60% | 1019.7 hPa | 0 mm | - | 146 W/m² | - |
| 1777405127 | 21.11° C | 61% | 1019.9 hPa | 0 mm | - | 823 W/m² | - |
| 1777404826 | 21.11° C | 63% | 1019.9 hPa | 0 mm | - | 868 W/m² | - |
| 1777404523 | 21.11° C | 62% | 1019.7 hPa | 0 mm | - | 307 W/m² | - |
* Rain latest hour (hover to see other rain measurements)
** Current wind speed in m/s (hover to see current wind gust speed)